createdAt,value
2018-11-01T00:01:10.015Z,3.46
2018-11-01T00:03:38.476Z,3.40
2018-11-01T00:06:07.041Z,3.49
2018-11-01T00:08:35.537Z,3.49
2018-11-01T00:11:05.376Z,3.43
2018-11-01T00:13:33.841Z,3.34
2018-11-01T00:16:02.487Z,3.15
2018-11-01T00:18:31.000Z,2.76
2018-11-01T00:20:59.529Z,3.25
2018-11-01T00:23:27.976Z,3.24
2018-11-01T00:25:56.912Z,3.22
2018-11-01T00:28:25.422Z,3.21
2018-11-01T00:30:53.883Z,3.21
2018-11-01T00:33:22.391Z,3.33
2018-11-01T00:35:50.919Z,3.30
2018-11-01T00:38:19.415Z,3.31
2018-11-01T00:40:48.351Z,3.33
2018-11-01T00:43:16.983Z,3.40
2018-11-01T00:45:45.513Z,3.44
2018-11-01T00:48:14.203Z,3.40
2018-11-01T00:50:43.519Z,3.20
2018-11-01T00:53:12.220Z,3.27
2018-11-01T00:55:41.437Z,3.34
2018-11-01T00:58:09.922Z,3.34
2018-11-01T01:00:38.742Z,3.32
2018-11-01T01:03:07.396Z,3.35
2018-11-01T01:05:35.819Z,3.37
2018-11-01T01:08:04.553Z,3.33
2018-11-01T01:10:33.116Z,3.38
2018-11-01T01:13:01.565Z,3.38
2018-11-01T01:15:30.039Z,3.49
2018-11-01T01:17:58.512Z,3.51
2018-11-01T01:20:27.007Z,3.44
2018-11-01T01:22:55.894Z,3.24
2018-11-01T01:25:26.585Z,3.29
2018-11-01T01:27:55.046Z,3.36
2018-11-01T01:30:23.625Z,3.27
2018-11-01T01:32:52.101Z,3.27
2018-11-01T01:35:20.625Z,3.32
2018-11-01T01:37:49.104Z,3.43
2018-11-01T01:40:17.572Z,3.53
2018-11-01T01:42:51.916Z,3.53
2018-11-01T01:45:20.822Z,3.62
2018-11-01T01:47:49.407Z,3.68
2018-11-01T01:50:18.697Z,3.69
2018-11-01T01:52:47.570Z,3.64
2018-11-01T01:55:16.790Z,3.56
2018-11-01T01:57:45.272Z,3.63
2018-11-01T02:00:15.498Z,3.58
2018-11-01T02:02:46.385Z,3.58
2018-11-01T02:05:14.868Z,3.82
2018-11-01T02:07:43.319Z,3.84
2018-11-01T02:10:14.244Z,3.82
2018-11-01T02:12:42.731Z,3.53
2018-11-01T02:15:13.452Z,3.51
2018-11-01T02:17:42.471Z,3.33
2018-11-01T02:20:12.607Z,3.28
2018-11-01T02:22:41.855Z,3.49
2018-11-01T02:25:10.635Z,3.51
2018-11-01T02:27:44.304Z,3.42
2018-11-01T02:30:14.540Z,3.35
2018-11-01T02:32:43.608Z,3.39
2018-11-01T02:35:14.020Z,3.48
2018-11-01T02:37:42.857Z,3.53
2018-11-01T02:40:12.904Z,3.56
2018-11-01T02:42:42.038Z,3.51
2018-11-01T02:45:11.606Z,3.57
2018-11-01T02:47:41.086Z,3.66
2018-11-01T02:50:10.603Z,3.69
2018-11-01T02:52:39.556Z,3.67
2018-11-01T02:55:08.919Z,3.62
2018-11-01T02:57:37.381Z,3.60
2018-11-01T03:00:10.264Z,3.56
2018-11-01T03:02:38.707Z,3.55
2018-11-01T03:05:07.970Z,3.54
2018-11-01T03:07:36.473Z,3.55
2018-11-01T03:10:05.928Z,3.40
2018-11-01T03:12:34.352Z,3.43
2018-11-01T03:15:02.851Z,3.45
2018-11-01T03:17:31.292Z,3.49
2018-11-01T03:19:59.811Z,3.53
2018-11-01T03:22:28.248Z,3.44
2018-11-01T03:24:56.810Z,3.41
2018-11-01T03:27:25.987Z,3.37
2018-11-01T03:29:54.555Z,3.41
2018-11-01T03:32:23.559Z,3.41
2018-11-01T03:34:52.023Z,3.25
2018-11-01T03:37:20.470Z,2.94
2018-11-01T03:39:48.975Z,2.75
2018-11-01T03:42:17.454Z,2.80
2018-11-01T03:44:46.127Z,2.82
2018-11-01T03:47:14.664Z,2.94
2018-11-01T03:49:43.143Z,2.82
2018-11-01T03:52:11.682Z,2.88
2018-11-01T03:54:40.330Z,2.75
2018-11-01T03:57:08.796Z,2.56
2018-11-01T03:59:37.260Z,2.18
2018-11-01T04:02:06.176Z,2.36
2018-11-01T04:04:34.764Z,2.38
2018-11-01T04:07:03.322Z,2.44
2018-11-01T04:09:33.057Z,2.34
2018-11-01T04:12:01.637Z,2.11
2018-11-01T04:14:30.291Z,2.42
2018-11-01T04:16:58.798Z,2.49
2018-11-01T04:19:27.524Z,2.54
2018-11-01T04:22:01.354Z,2.69
2018-11-01T04:24:29.810Z,2.54
2018-11-01T04:26:58.236Z,2.38
2018-11-01T04:29:27.088Z,2.60
2018-11-01T04:31:55.555Z,2.71
2018-11-01T04:34:24.531Z,2.78
2018-11-01T04:36:52.960Z,2.91
2018-11-01T04:39:21.493Z,3.00
2018-11-01T04:41:50.035Z,2.98
2018-11-01T04:44:18.513Z,3.02
2018-11-01T04:46:47.169Z,3.05
2018-11-01T04:49:16.018Z,3.10
2018-11-01T04:51:44.763Z,3.06
2018-11-01T04:54:13.591Z,3.17
2018-11-01T04:56:42.103Z,3.14
2018-11-01T04:59:10.572Z,3.03
2018-11-01T05:01:39.226Z,2.91
2018-11-01T05:04:07.679Z,3.02
2018-11-01T05:06:36.123Z,2.87
2018-11-01T05:09:05.506Z,2.96
2018-11-01T05:11:34.017Z,3.06
2018-11-01T05:14:02.439Z,3.13
2018-11-01T05:16:32.891Z,3.16
2018-11-01T05:19:16.802Z,3.25
2018-11-01T05:21:46.231Z,3.25
2018-11-01T05:24:14.680Z,3.54
2018-11-01T05:26:43.219Z,3.26
2018-11-01T05:29:12.248Z,3.10
2018-11-01T05:31:40.772Z,3.15
2018-11-01T05:34:09.321Z,3.11
2018-11-01T05:36:37.804Z,3.23
2018-11-01T05:39:09.609Z,3.34
2018-11-01T05:41:38.129Z,3.50
2018-11-01T05:44:06.598Z,3.61
2018-11-01T05:46:35.097Z,3.62
2018-11-01T05:49:06.596Z,3.69
2018-11-01T05:51:35.114Z,3.77
2018-11-01T05:54:03.881Z,3.80
2018-11-01T05:56:32.347Z,3.78
2018-11-01T05:59:00.778Z,3.59
2018-11-01T06:01:32.823Z,3.57
2018-11-01T06:04:01.669Z,3.51
2018-11-01T06:06:30.172Z,3.49
2018-11-01T06:08:59.864Z,3.42
2018-11-01T06:11:28.367Z,3.47
2018-11-01T06:13:56.822Z,3.54
2018-11-01T06:16:25.306Z,3.60
2018-11-01T06:18:53.865Z,3.81
2018-11-01T06:21:22.284Z,3.96
2018-11-01T06:23:50.769Z,3.78
2018-11-01T06:26:19.211Z,3.76
2018-11-01T06:28:47.738Z,3.70
2018-11-01T06:31:16.276Z,4.00
2018-11-01T06:33:45.107Z,3.92
2018-11-01T06:36:15.236Z,3.99
2018-11-01T06:38:44.307Z,3.96
2018-11-01T06:41:12.772Z,3.86
2018-11-01T06:43:41.322Z,3.84
2018-11-01T06:46:10.320Z,3.72
2018-11-01T06:48:39.234Z,3.54
2018-11-01T06:51:07.969Z,3.61
2018-11-01T06:53:36.448Z,3.37
2018-11-01T06:56:05.256Z,3.34
2018-11-01T06:58:34.624Z,3.27
2018-11-01T07:01:03.009Z,3.63
2018-11-01T07:03:31.529Z,3.78
2018-11-01T07:06:00.216Z,3.67
2018-11-01T07:08:28.668Z,3.98
2018-11-01T07:10:57.175Z,3.81
2018-11-01T07:13:25.671Z,4.09
2018-11-01T07:15:54.903Z,4.13
2018-11-01T07:18:23.471Z,3.80
2018-11-01T07:20:51.988Z,4.15
2018-11-01T07:23:20.675Z,4.14
2018-11-01T07:25:49.310Z,4.34
2018-11-01T07:28:17.912Z,4.45
2018-11-01T07:30:46.572Z,4.56
2018-11-01T07:33:15.152Z,4.36
2018-11-01T07:35:43.779Z,4.53
2018-11-01T07:38:12.932Z,4.60
2018-11-01T07:40:41.592Z,4.47
2018-11-01T07:43:10.120Z,4.44
2018-11-01T07:45:38.703Z,4.55
2018-11-01T07:48:07.464Z,4.68
2018-11-01T07:50:35.980Z,4.39
2018-11-01T07:53:05.330Z,4.64
2018-11-01T07:55:33.773Z,4.81
2018-11-01T07:58:02.274Z,4.90
2018-11-01T08:00:31.032Z,4.96
2018-11-01T08:02:59.900Z,5.00
2018-11-01T08:05:28.462Z,4.86
2018-11-01T08:07:57.179Z,4.61
2018-11-01T08:10:25.871Z,4.70
2018-11-01T08:12:54.457Z,4.82
2018-11-01T08:15:22.911Z,4.93
2018-11-01T08:17:52.088Z,5.08
2018-11-01T08:20:20.968Z,5.22
2018-11-01T08:22:49.303Z,5.38
2018-11-01T08:25:17.832Z,5.47
2018-11-01T08:27:46.354Z,5.51
2018-11-01T08:30:16.296Z,5.61
2018-11-01T08:32:44.808Z,5.63
2018-11-01T08:35:13.582Z,5.67
2018-11-01T08:37:43.145Z,5.69
2018-11-01T08:40:12.309Z,5.74
2018-11-01T08:42:41.286Z,5.70
2018-11-01T08:45:11.748Z,5.79
2018-11-01T08:47:40.819Z,5.83
2018-11-01T08:50:10.989Z,5.89
2018-11-01T08:52:40.022Z,6.04
2018-11-01T08:55:09.172Z,5.73
2018-11-01T08:57:37.679Z,5.49
2018-11-01T09:00:07.644Z,5.28
2018-11-01T09:02:36.071Z,5.61
2018-11-01T09:05:04.595Z,5.91
2018-11-01T09:07:33.192Z,6.03
2018-11-01T09:10:01.698Z,5.75
2018-11-01T09:12:30.243Z,5.80
2018-11-01T09:14:58.657Z,5.88
2018-11-01T09:17:27.115Z,5.97
2018-11-01T09:19:55.628Z,6.06
2018-11-01T09:22:24.359Z,6.30
2018-11-01T09:24:52.841Z,6.35
2018-11-01T09:27:21.280Z,6.48
2018-11-01T09:29:49.769Z,6.73
2018-11-01T09:32:18.189Z,6.44
2018-11-01T09:34:46.797Z,6.20
2018-11-01T09:37:15.254Z,6.70
2018-11-01T09:39:44.315Z,6.73
2018-11-01T09:42:12.792Z,6.70
2018-11-01T09:44:42.074Z,6.89
2018-11-01T09:47:10.962Z,6.71
2018-11-01T09:49:39.280Z,7.33
2018-11-01T09:52:07.915Z,7.37
2018-11-01T09:54:36.400Z,7.16
2018-11-01T09:57:05.528Z,6.97
2018-11-01T09:59:34.026Z,7.23
2018-11-01T10:02:04.045Z,7.47
2018-11-01T10:04:32.573Z,7.54
2018-11-01T10:07:01.119Z,7.89
2018-11-01T10:09:29.497Z,7.76
2018-11-01T10:11:57.946Z,7.83
2018-11-01T10:14:26.434Z,8.03
2018-11-01T10:16:55.817Z,7.82
2018-11-01T10:19:24.619Z,8.04
2018-11-01T10:21:53.277Z,8.19
2018-11-01T10:24:21.715Z,8.16
2018-11-01T10:26:50.449Z,8.17
2018-11-01T10:29:18.888Z,8.44
2018-11-01T10:31:47.397Z,8.12
2018-11-01T10:34:15.935Z,8.62
2018-11-01T10:36:44.434Z,8.83
2018-11-01T10:39:12.868Z,8.70
2018-11-01T10:41:41.361Z,9.00
2018-11-01T10:44:10.495Z,9.05
2018-11-01T10:46:38.958Z,9.25
2018-11-01T10:49:07.405Z,9.12
2018-11-01T10:51:36.219Z,8.91
2018-11-01T10:54:05.817Z,8.50
2018-11-01T10:56:34.557Z,8.55
2018-11-01T10:59:03.388Z,8.58
2018-11-01T11:01:42.724Z,8.69
2018-11-01T11:04:11.562Z,8.92
2018-11-01T11:06:41.367Z,9.04
2018-11-01T11:09:10.296Z,9.04
2018-11-01T11:11:39.570Z,9.00
2018-11-01T11:14:09.092Z,8.83
2018-11-01T11:16:38.306Z,9.03
2018-11-01T11:19:07.510Z,9.21
2018-11-01T11:21:36.230Z,9.36
2018-11-01T11:24:05.465Z,9.32
2018-11-01T11:26:33.910Z,9.15
2018-11-01T11:29:03.166Z,9.17
2018-11-01T11:31:32.334Z,9.34
2018-11-01T11:34:01.543Z,9.33
2018-11-01T11:36:30.060Z,9.27
2018-11-01T11:38:58.579Z,9.20
2018-11-01T11:41:27.083Z,8.98
2018-11-01T11:43:55.543Z,9.24
2018-11-01T11:46:24.844Z,8.90
2018-11-01T11:48:54.724Z,8.75
2018-11-01T11:51:23.229Z,8.55
2018-11-01T11:53:51.708Z,8.64
2018-11-01T11:56:20.911Z,8.59
2018-11-01T11:58:49.450Z,8.62
2018-11-01T12:01:17.902Z,8.81
2018-11-01T12:03:46.376Z,8.31
2018-11-01T12:06:14.959Z,8.59
2018-11-01T12:08:43.371Z,8.69
2018-11-01T12:11:12.023Z,8.53
2018-11-01T12:13:40.627Z,8.67
2018-11-01T12:16:09.128Z,8.49
2018-11-01T12:18:37.680Z,8.36
2018-11-01T12:21:06.126Z,8.31
2018-11-01T12:23:34.588Z,8.47
2018-11-01T12:26:03.231Z,8.44
2018-11-01T12:28:32.275Z,8.54
2018-11-01T12:31:00.694Z,8.75
2018-11-01T12:33:29.799Z,8.80
2018-11-01T12:35:59.009Z,8.72
2018-11-01T12:38:27.606Z,8.72
2018-11-01T12:40:57.008Z,9.00
2018-11-01T12:43:25.526Z,8.95
2018-11-01T12:45:54.179Z,9.08
2018-11-01T12:48:22.655Z,8.97
2018-11-01T12:50:51.126Z,9.09
2018-11-01T12:53:19.681Z,9.19
2018-11-01T12:55:48.108Z,9.34
2018-11-01T12:58:16.623Z,9.21
2018-11-01T13:00:45.742Z,9.22
2018-11-01T13:03:15.265Z,9.11
2018-11-01T13:05:44.554Z,9.04
2018-11-01T13:08:13.024Z,9.22
2018-11-01T13:10:42.099Z,8.94
2018-11-01T13:13:10.589Z,8.77
2018-11-01T13:15:39.079Z,8.85
2018-11-01T13:18:07.592Z,9.15
2018-11-01T13:20:36.063Z,9.56
2018-11-01T13:23:04.539Z,9.42
2018-11-01T13:25:33.064Z,9.50
2018-11-01T13:28:01.571Z,9.44
2018-11-01T13:30:30.057Z,9.19
2018-11-01T13:32:58.753Z,9.27
2018-11-01T13:35:27.303Z,9.57
2018-11-01T13:37:55.717Z,10.01
2018-11-01T13:40:25.149Z,10.14
2018-11-01T13:42:53.340Z,9.88
2018-11-01T13:45:21.849Z,10.18
2018-11-01T13:47:50.358Z,9.84
2018-11-01T13:50:18.908Z,10.27
2018-11-01T13:52:47.343Z,10.10
2018-11-01T13:55:15.867Z,10.38
2018-11-01T13:57:45.388Z,10.72
2018-11-01T14:00:14.858Z,10.98
2018-11-01T14:02:43.818Z,10.83
2018-11-01T14:05:13.659Z,10.52
2018-11-01T14:07:42.856Z,10.88
2018-11-01T14:10:14.786Z,10.82
2018-11-01T14:12:43.649Z,10.58
2018-11-01T14:15:12.921Z,10.36
2018-11-01T14:17:42.021Z,10.28
2018-11-01T14:20:12.312Z,10.20
2018-11-01T14:22:41.401Z,10.10
2018-11-01T14:25:13.150Z,10.11
2018-11-01T14:27:41.902Z,10.05
2018-11-01T14:30:13.053Z,9.97
2018-11-01T14:32:41.760Z,9.97
2018-11-01T14:35:11.692Z,9.79
2018-11-01T14:37:40.338Z,9.65
2018-11-01T14:40:10.926Z,9.57
2018-11-01T14:42:40.164Z,9.54
2018-11-01T14:45:09.460Z,9.47
2018-11-01T14:47:38.765Z,9.46
2018-11-01T14:50:07.949Z,9.50
2018-11-01T14:52:36.795Z,9.44
2018-11-01T14:55:06.188Z,9.39
2018-11-01T14:57:34.832Z,9.38
2018-11-01T15:00:02.282Z,9.41
2018-11-01T15:02:30.804Z,9.42
2018-11-01T15:04:59.310Z,9.36
2018-11-01T15:07:27.805Z,9.34
2018-11-01T15:09:56.307Z,9.33
2018-11-01T15:12:26.041Z,9.27
2018-11-01T15:14:54.473Z,9.20
2018-11-01T15:17:23.671Z,9.19
2018-11-01T15:19:52.178Z,9.10
2018-11-01T15:22:20.684Z,9.04
2018-11-01T15:24:49.216Z,8.98
2018-11-01T15:27:19.978Z,8.85
2018-11-01T15:29:48.733Z,8.79
2018-11-01T15:32:22.288Z,8.74
2018-11-01T15:34:51.073Z,8.66
2018-11-01T15:37:19.638Z,8.63
2018-11-01T15:39:48.136Z,8.56
2018-11-01T15:42:16.696Z,8.50
2018-11-01T15:44:46.032Z,8.46
2018-11-01T15:47:14.574Z,8.37
2018-11-01T15:49:43.241Z,8.29
2018-11-01T15:52:11.890Z,8.19
2018-11-01T15:54:41.265Z,8.12
2018-11-01T15:57:09.878Z,8.07
2018-11-01T15:59:38.509Z,8.04
2018-11-01T16:02:07.689Z,7.93
2018-11-01T16:04:36.166Z,7.82
2018-11-01T16:07:04.673Z,7.73
2018-11-01T16:09:33.699Z,7.63
2018-11-01T16:12:02.240Z,7.60
2018-11-01T16:14:30.678Z,7.50
2018-11-01T16:16:59.599Z,7.28
2018-11-01T16:19:28.148Z,7.24
2018-11-01T16:21:56.552Z,7.58
2018-11-01T16:24:25.090Z,7.28
2018-11-01T16:26:53.704Z,7.22
2018-11-01T16:29:22.199Z,7.37
2018-11-01T16:31:50.690Z,7.31
2018-11-01T16:34:19.504Z,7.28
2018-11-01T16:36:48.108Z,7.15
2018-11-01T16:39:16.502Z,7.10
2018-11-01T16:41:45.573Z,7.21
2018-11-01T16:44:14.009Z,7.26
2018-11-01T16:46:42.640Z,7.24
2018-11-01T16:49:11.372Z,7.24
2018-11-01T16:51:39.894Z,7.09
2018-11-01T16:54:08.824Z,6.99
2018-11-01T16:56:37.374Z,6.88
2018-11-01T16:59:06.665Z,6.75
2018-11-01T17:01:35.174Z,6.87
2018-11-01T17:04:03.631Z,6.93
2018-11-01T17:06:32.089Z,7.00
2018-11-01T17:09:00.884Z,6.94
2018-11-01T17:11:29.297Z,6.89
2018-11-01T17:13:57.751Z,6.87
2018-11-01T17:16:26.315Z,6.77
2018-11-01T17:18:55.441Z,6.78
2018-11-01T17:21:23.963Z,6.61
2018-11-01T17:23:52.425Z,6.59
2018-11-01T17:26:20.890Z,6.62
2018-11-01T17:28:49.411Z,6.59
2018-11-01T17:31:17.898Z,6.56
2018-11-01T17:33:46.477Z,6.48
2018-11-01T17:36:14.922Z,6.39
2018-11-01T17:38:43.389Z,6.33
2018-11-01T17:41:12.262Z,6.42
2018-11-01T17:43:41.247Z,6.52
2018-11-01T17:46:10.066Z,6.50
2018-11-01T17:48:39.170Z,6.36
2018-11-01T17:51:07.677Z,6.38
2018-11-01T17:53:37.503Z,6.39
2018-11-01T17:56:06.095Z,6.21
2018-11-01T17:58:35.504Z,6.21
2018-11-01T18:01:04.329Z,6.22
2018-11-01T18:03:32.793Z,6.30
2018-11-01T18:06:01.291Z,6.35
2018-11-01T18:08:30.572Z,6.27
2018-11-01T18:10:58.980Z,6.22
2018-11-01T18:13:27.406Z,6.22
2018-11-01T18:15:55.901Z,6.26
2018-11-01T18:18:24.391Z,6.33
2018-11-01T18:20:53.804Z,6.25
2018-11-01T18:23:22.580Z,6.26
2018-11-01T18:25:51.409Z,6.13
2018-11-01T18:28:20.610Z,6.28
2018-11-01T18:30:49.069Z,6.16
2018-11-01T18:33:17.646Z,6.16
2018-11-01T18:35:47.022Z,6.29
2018-11-01T18:38:15.499Z,6.34
2018-11-01T18:40:43.956Z,6.64
2018-11-01T18:43:12.409Z,6.71
2018-11-01T18:45:40.872Z,6.42
2018-11-01T18:48:09.387Z,6.51
2018-11-01T18:50:38.474Z,6.52
2018-11-01T18:53:07.717Z,6.54
2018-11-01T18:55:36.247Z,6.35
2018-11-01T18:58:05.544Z,6.38
2018-11-01T19:00:34.033Z,6.41
2018-11-01T19:03:02.487Z,6.71
2018-11-01T19:05:31.027Z,6.56
2018-11-01T19:07:59.483Z,6.57
2018-11-01T19:10:28.029Z,6.46
2018-11-01T19:12:56.961Z,6.42
2018-11-01T19:15:25.495Z,6.49
2018-11-01T19:17:54.013Z,6.47
2018-11-01T19:20:22.580Z,6.55
2018-11-01T19:22:51.109Z,6.56
2018-11-01T19:25:19.654Z,6.55
2018-11-01T19:27:48.165Z,6.41
2018-11-01T19:30:16.670Z,6.50
2018-11-01T19:32:45.211Z,6.59
2018-11-01T19:35:14.369Z,6.53
2018-11-01T19:37:42.849Z,6.59
2018-11-01T19:40:13.685Z,6.80
2018-11-01T19:42:42.497Z,6.77
2018-11-01T19:45:11.839Z,6.69
2018-11-01T19:47:40.381Z,6.78
2018-11-01T19:50:10.833Z,6.87
2018-11-01T19:52:39.341Z,7.17
2018-11-01T19:55:08.556Z,7.05
2018-11-01T19:57:37.145Z,7.00
2018-11-01T20:00:07.640Z,7.14
2018-11-01T20:02:36.195Z,7.16
2018-11-01T20:05:04.883Z,7.18
2018-11-01T20:07:36.186Z,7.29
2018-11-01T20:10:05.078Z,7.49
2018-11-01T20:12:33.547Z,7.46
2018-11-01T20:15:02.029Z,7.51
2018-11-01T20:17:30.606Z,7.48
2018-11-01T20:19:59.165Z,7.55
2018-11-01T20:22:27.641Z,7.61
2018-11-01T20:24:56.746Z,7.64
2018-11-01T20:27:25.572Z,7.71
2018-11-01T20:29:54.105Z,7.87
2018-11-01T20:32:22.597Z,8.15
2018-11-01T20:34:51.325Z,8.17
2018-11-01T20:37:19.843Z,8.37
2018-11-01T20:39:48.376Z,8.47
2018-11-01T20:42:16.841Z,8.72
2018-11-01T20:44:46.054Z,8.86
2018-11-01T20:47:14.539Z,8.89
2018-11-01T20:49:43.028Z,9.17
2018-11-01T20:52:11.516Z,9.14
2018-11-01T20:54:40.029Z,9.26
2018-11-01T20:57:09.267Z,9.34
2018-11-01T20:59:37.724Z,9.45
2018-11-01T21:02:06.298Z,9.54
2018-11-01T21:04:34.836Z,9.59
2018-11-01T21:07:03.356Z,9.64
2018-11-01T21:09:31.891Z,9.69
2018-11-01T21:12:00.513Z,9.84
2018-11-01T21:14:28.864Z,9.79
2018-11-01T21:16:57.473Z,9.74
2018-11-01T21:19:26.697Z,9.74
2018-11-01T21:21:55.241Z,9.67
2018-11-01T21:24:26.150Z,9.68
2018-11-01T21:26:55.622Z,9.72
2018-11-01T21:29:24.115Z,9.82
2018-11-01T21:31:52.651Z,9.73
2018-11-01T21:34:21.092Z,9.80
2018-11-01T21:36:49.604Z,9.86
2018-11-01T21:39:18.943Z,9.91
2018-11-01T21:41:47.497Z,9.93
2018-11-01T21:44:15.944Z,10.05
2018-11-01T21:46:45.403Z,10.05
2018-11-01T21:49:13.924Z,9.89
2018-11-01T21:51:42.404Z,10.01
2018-11-01T21:54:10.857Z,9.90
2018-11-01T21:56:39.418Z,9.90
2018-11-01T21:59:07.843Z,9.81
2018-11-01T22:01:36.448Z,9.68
2018-11-01T22:04:05.316Z,9.57
2018-11-01T22:06:33.801Z,9.55
2018-11-01T22:09:02.480Z,9.60
2018-11-01T22:11:30.968Z,9.50
2018-11-01T22:13:59.476Z,9.38
2018-11-01T22:16:28.657Z,9.29
2018-11-01T22:18:57.219Z,9.23
2018-11-01T22:21:26.492Z,9.11
2018-11-01T22:23:54.995Z,9.16
2018-11-01T22:26:23.592Z,9.17
2018-11-01T22:28:52.096Z,9.21
2018-11-01T22:31:21.343Z,9.19
2018-11-01T22:33:50.372Z,9.12
2018-11-01T22:36:18.791Z,9.07
2018-11-01T22:38:47.442Z,9.07
2018-11-01T22:41:15.772Z,8.97
2018-11-01T22:43:44.260Z,8.81
2018-11-01T22:46:12.725Z,8.89
2018-11-01T22:48:41.304Z,8.84
2018-11-01T22:51:09.736Z,8.85
2018-11-01T22:53:38.265Z,8.90
2018-11-01T22:56:07.529Z,8.87
2018-11-01T22:58:36.449Z,8.80
2018-11-01T23:01:05.433Z,8.76
2018-11-01T23:03:34.080Z,8.85
2018-11-01T23:06:02.543Z,9.02
2018-11-01T23:08:31.005Z,8.83
2018-11-01T23:10:59.464Z,8.88
2018-11-01T23:13:28.001Z,8.99
2018-11-01T23:15:56.514Z,9.11
2018-11-01T23:18:26.000Z,9.14
2018-11-01T23:20:54.515Z,9.19
2018-11-01T23:23:24.733Z,9.28
2018-11-01T23:25:53.284Z,9.16
2018-11-01T23:28:22.046Z,9.20
2018-11-01T23:30:50.493Z,9.22
2018-11-01T23:33:19.590Z,9.18
2018-11-01T23:35:48.104Z,9.19
2018-11-01T23:38:21.898Z,9.19
2018-11-01T23:40:56.256Z,9.21
2018-11-01T23:43:30.381Z,9.28
2018-11-01T23:46:04.222Z,9.29
2018-11-01T23:48:34.148Z,9.37
2018-11-01T23:51:19.155Z,9.34
2018-11-01T23:53:49.816Z,9.41
2018-11-01T23:56:18.862Z,9.29
2018-11-01T23:58:47.469Z,9.31
